Plymouth, NC (27962)

11:49 PM EDT on April 21, 2015 (GMT -0400)
APRSWXNET | | Change Station
CLOSE
Current Station
Personal Weather Station
Location: Plymouth, NC
Elevation: 9 ft
Nearby Weather Stations
Active Advisory: Special Statement

Elev 9 ft 35.89 °N, 76.73 °W | Updated 47 minutes ago

Clear
Clear
56 °F
Feels Like 56 °F
N
0
Wind Variable Wind from WSW
Gusts 0.0 mph

Today
High -- | Low -- °F
--% Chance of Precip.
Yesterday
High -- | Low -- °F
Precip. -- in
6:26 AM 7:45 PM
Waxing Crescent, 15% visible
Pressure 29.88 in
Visibility 10.0 miles
Clouds Clear
Dew Point 52 °F
Humidity 87%
Rainfall in
Snow Depth Not available.
UV 0 out of 12
Pollen 9.50 out of 12
Air Quality Not available.
Flu Activity Sporadic
METAR KEDE 220335Z AUTO 00000KT 10SM CLR 12/10 A2988 RMK AO2 T01230096

More Conditions Fewer Conditions

Pressure 29.88 in
Visibility 10.0 miles
Clouds Clear
Dew Point 52 °F
Humidity 87%
Rainfall in
Snow Depth Not available.
UV 0 out of 12
Pollen 9.50 out of 12
Air Quality Not available.
Flu Activity Sporadic
METAR KEDE 220335Z AUTO 00000KT 10SM CLR 12/10 A2988 RMK AO2 T01230096

More Conditions Fewer Conditions

10-Day Weather Forecast

Almanac

Astronomy

Apr. 21, 2015 Rise Set
Actual Time
Civil Twilight
Nautical Twilight
Astronomical Twilight
Moon
Length of Visible Light
Length of Day
Tomorrow will be .
, % of the Moon is Illuminated

Today's Extremes

State Highs State Lows

Community

WunderPhotos

Upload Photos

1,815,661 photos uploaded!

WunderBlogs® & News

Nearby

Air Quality

  Air Quality AQ Index Pollutant
Not available.

Snow Depth

Station Depth Elevation

Earthquake Activity

City Distance Mag. Time & Date
Minimum magnitude displayed is 2.5.

Coastal Water Temperatures

Place Temperature

Stations

Nearby Weather Stations

Station Location Temp. Windchill Dew Point Humidity Wind Precip. Elev Updated Type
                   
Special Statement
Statement as of 2:42 PM EDT on April 21, 2015

... Increased fire danger across portions of eastern North Carolina
Wednesday...

Gusty west to southwest winds and low relative humidity will
combine for an increased fire danger Wednesday. Sustained winds 15
to 20 mph with gusts to 25 mph, along with relative humidity
between 25 to 30 percent will contribute to the fire danger threat
during the afternoon.

Residents are urged to avoid outdoor burning Wednesday, especially
during the afternoon.